createdAt,value
2018-09-10T00:00:47.631Z,19.90
2018-09-10T00:03:15.839Z,19.90
2018-09-10T00:05:44.046Z,19.90
2018-09-10T00:08:12.261Z,19.80
2018-09-10T00:10:40.588Z,19.80
2018-09-10T00:13:08.840Z,19.80
2018-09-10T00:15:37.050Z,19.80
2018-09-10T00:18:05.265Z,19.60
2018-09-10T00:20:33.511Z,19.80
2018-09-10T00:23:01.719Z,19.80
2018-09-10T00:25:29.922Z,19.80
2018-09-10T00:27:58.129Z,19.60
2018-09-10T00:30:26.386Z,19.80
2018-09-10T00:32:54.645Z,19.90
2018-09-10T00:35:22.855Z,20.00
2018-09-10T00:37:51.060Z,20.00
2018-09-10T00:40:19.266Z,20.00
2018-09-10T00:42:47.471Z,19.90
2018-09-10T00:45:15.697Z,20.10
2018-09-10T00:47:44.058Z,20.10
2018-09-10T00:50:12.263Z,20.10
2018-09-10T00:52:40.488Z,20.00
2018-09-10T00:55:08.738Z,20.00
2018-09-10T00:57:36.942Z,20.10
2018-09-10T01:00:05.708Z,20.10
2018-09-10T01:02:34.022Z,19.80
2018-09-10T01:05:02.296Z,19.90
2018-09-10T01:07:30.521Z,19.80
2018-09-10T01:09:58.735Z,19.70
2018-09-10T01:12:26.929Z,19.90
2018-09-10T01:14:55.157Z,19.90
2018-09-10T01:17:23.421Z,20.00
2018-09-10T01:19:51.661Z,19.90
2018-09-10T01:22:19.914Z,19.70
2018-09-10T01:24:48.117Z,19.60
2018-09-10T01:27:16.387Z,19.80
2018-09-10T01:29:44.592Z,20.00
2018-09-10T01:32:12.812Z,19.70
2018-09-10T01:34:46.496Z,19.50
2018-09-10T01:37:14.811Z,19.70
2018-09-10T01:39:43.175Z,19.80
2018-09-10T01:42:11.421Z,19.90
2018-09-10T01:44:39.681Z,19.90
2018-09-10T01:47:07.957Z,19.80
2018-09-10T01:49:36.185Z,19.60
2018-09-10T01:52:04.488Z,19.80
2018-09-10T01:54:32.712Z,19.80
2018-09-10T01:57:00.987Z,19.40
2018-09-10T01:59:29.258Z,19.60
2018-09-10T02:01:57.513Z,19.60
2018-09-10T02:04:25.789Z,19.60
2018-09-10T02:06:54.022Z,19.70
2018-09-10T02:09:22.281Z,19.70
2018-09-10T02:11:50.533Z,19.90
2018-09-10T02:14:18.789Z,20.00
2018-09-10T02:16:47.017Z,19.90
2018-09-10T02:21:43.229Z,20.00
2018-09-10T02:24:11.439Z,19.90
2018-09-10T02:26:39.722Z,20.00
2018-09-10T02:29:08.037Z,19.90
2018-09-10T02:31:36.322Z,19.90
2018-09-10T02:34:04.538Z,19.90
2018-09-10T02:36:32.750Z,19.70
2018-09-10T02:39:00.997Z,20.00
2018-09-10T02:41:29.261Z,20.10
2018-09-10T02:43:57.498Z,20.10
2018-09-10T02:46:25.804Z,20.40
2018-09-10T02:48:54.001Z,20.40
2018-09-10T02:51:22.265Z,20.40
2018-09-10T02:53:50.502Z,20.40
2018-09-10T02:56:18.774Z,20.50
2018-09-10T02:58:47.005Z,20.60
2018-09-10T03:01:15.235Z,20.50
2018-09-10T03:03:43.447Z,20.50
2018-09-10T03:06:11.673Z,20.30
2018-09-10T03:08:39.877Z,20.40
2018-09-10T03:11:08.090Z,20.30
2018-09-10T03:13:36.302Z,20.30
2018-09-10T03:16:04.555Z,20.30
2018-09-10T03:18:32.770Z,20.40
2018-09-10T03:21:01.029Z,20.30
2018-09-10T03:23:29.242Z,20.30
2018-09-10T03:25:57.494Z,20.20
2018-09-10T03:28:25.723Z,20.20
2018-09-10T03:30:53.936Z,20.40
2018-09-10T03:33:22.238Z,20.20
2018-09-10T03:35:50.526Z,20.20
2018-09-10T03:38:18.737Z,20.30
2018-09-10T03:40:46.961Z,20.40
2018-09-10T03:43:15.232Z,20.40
2018-09-10T03:45:43.489Z,20.60
2018-09-10T03:48:11.741Z,20.60
2018-09-10T03:50:39.961Z,20.40
2018-09-10T03:53:08.177Z,20.20
2018-09-10T03:55:36.449Z,20.20
2018-09-10T03:58:04.659Z,20.30
2018-09-10T04:00:32.870Z,20.30
2018-09-10T04:03:01.205Z,20.20
2018-09-10T04:05:29.414Z,20.20
2018-09-10T04:07:57.664Z,20.10
2018-09-10T04:10:25.953Z,21.10
2018-09-10T04:12:54.205Z,20.40
2018-09-10T04:15:22.406Z,20.50
2018-09-10T04:17:50.615Z,20.50
2018-09-10T04:20:18.854Z,20.60
2018-09-10T04:22:47.126Z,20.70
2018-09-10T04:25:15.332Z,20.90
2018-09-10T04:27:43.542Z,20.70
2018-09-10T04:30:14.430Z,20.60
2018-09-10T04:32:42.895Z,20.80
2018-09-10T04:35:11.816Z,20.70
2018-09-10T04:37:40.457Z,20.80
2018-09-10T04:40:08.662Z,20.60
2018-09-10T04:42:36.926Z,20.30
2018-09-10T04:45:05.603Z,20.30
2018-09-10T04:47:33.857Z,20.30
2018-09-10T04:50:02.346Z,20.30
2018-09-10T04:52:30.566Z,20.20
2018-09-10T04:54:58.837Z,20.20
2018-09-10T04:57:27.113Z,20.10
2018-09-10T04:59:55.361Z,20.00
2018-09-10T05:02:23.621Z,20.10
2018-09-10T05:04:51.818Z,20.20
2018-09-10T05:07:20.021Z,19.90
2018-09-10T05:09:48.319Z,19.70
2018-09-10T05:12:16.470Z,19.60
2018-09-10T05:14:44.690Z,19.60
2018-09-10T05:17:12.935Z,19.60
2018-09-10T05:19:41.237Z,19.70
2018-09-10T05:22:09.708Z,19.80
2018-09-10T05:24:37.723Z,19.90
2018-09-10T05:27:05.924Z,19.80
2018-09-10T05:29:34.129Z,19.70
2018-09-10T05:32:02.389Z,19.80
2018-09-10T05:34:30.659Z,19.90
2018-09-10T05:36:59.001Z,19.70
2018-09-10T05:39:27.290Z,19.40
2018-09-10T05:41:55.525Z,19.30
2018-09-10T05:44:23.799Z,19.20
2018-09-10T05:46:52.113Z,19.40
2018-09-10T05:49:20.399Z,19.30
2018-09-10T05:51:48.654Z,19.20
2018-09-10T05:54:16.870Z,19.10
2018-09-10T05:56:45.145Z,19.20
2018-09-10T05:59:13.429Z,19.20
2018-09-10T06:01:41.670Z,19.30
2018-09-10T06:04:10.001Z,19.30
2018-09-10T06:06:38.299Z,19.40
2018-09-10T06:09:07.182Z,19.70
2018-09-10T06:11:35.390Z,20.00
2018-09-10T06:14:03.830Z,20.10
2018-09-10T06:16:32.125Z,20.20
2018-09-10T06:19:00.585Z,20.10
2018-09-10T06:21:28.793Z,20.00
2018-09-10T06:23:57.854Z,20.00
2018-09-10T06:26:26.128Z,20.00
2018-09-10T06:28:54.467Z,20.00
2018-09-10T06:31:22.693Z,20.10
2018-09-10T06:33:51.170Z,20.10
2018-09-10T06:36:19.381Z,19.90
2018-09-10T06:38:47.578Z,20.20
2018-09-10T06:41:15.795Z,20.10
2018-09-10T06:43:44.068Z,20.20
2018-09-10T06:46:12.324Z,20.00
2018-09-10T06:48:40.619Z,20.00
2018-09-10T06:51:08.833Z,19.80
2018-09-10T06:53:37.068Z,20.00
2018-09-10T06:56:05.855Z,20.40
2018-09-10T06:58:34.976Z,20.30
2018-09-10T07:01:03.205Z,20.40
2018-09-10T07:03:31.461Z,20.60
2018-09-10T07:05:59.754Z,20.60
2018-09-10T07:08:28.414Z,20.70
2018-09-10T07:10:56.697Z,20.70
2018-09-10T07:13:25.547Z,20.50
2018-09-10T07:15:54.033Z,20.30
2018-09-10T07:18:22.488Z,20.40
2018-09-10T07:20:50.858Z,20.40
2018-09-10T07:23:19.185Z,20.30
2018-09-10T07:25:47.477Z,20.30
2018-09-10T07:28:15.686Z,20.50
2018-09-10T07:30:43.929Z,20.60
2018-09-10T07:33:12.343Z,20.70
2018-09-10T07:35:41.173Z,20.70
2018-09-10T07:38:10.390Z,20.40
2018-09-10T07:40:38.592Z,20.60
2018-09-10T07:43:06.801Z,20.50
2018-09-10T07:45:35.077Z,20.80
2018-09-10T07:48:03.830Z,21.10
2018-09-10T07:50:32.133Z,20.70
2018-09-10T07:53:00.391Z,20.70
2018-09-10T07:55:28.645Z,20.60
2018-09-10T07:57:57.905Z,20.60
2018-09-10T08:00:26.138Z,20.80
2018-09-10T08:02:54.440Z,20.60
2018-09-10T08:05:22.665Z,20.90
2018-09-10T08:07:51.089Z,21.00
2018-09-10T08:10:19.289Z,21.20
2018-09-10T08:12:47.738Z,21.20
2018-09-10T08:15:16.251Z,20.90
2018-09-10T08:17:44.463Z,20.70
2018-09-10T08:20:12.910Z,20.50
2018-09-10T08:22:41.117Z,20.60
2018-09-10T08:25:09.484Z,20.70
2018-09-10T08:27:37.686Z,21.10
2018-09-10T08:30:06.740Z,20.40
2018-09-10T08:32:34.976Z,20.40
2018-09-10T08:35:03.274Z,20.40
2018-09-10T08:37:31.498Z,20.70
2018-09-10T08:39:59.693Z,21.00
2018-09-10T08:42:27.925Z,20.80
2018-09-10T08:44:56.278Z,20.50
2018-09-10T08:47:24.491Z,20.60
2018-09-10T08:49:52.777Z,20.60
2018-09-10T08:52:21.014Z,21.00
2018-09-10T08:54:49.427Z,21.10
2018-09-10T08:57:17.477Z,20.80
2018-09-10T08:59:45.836Z,20.90
2018-09-10T09:02:14.050Z,21.00
2018-09-10T09:04:42.334Z,21.30
2018-09-10T09:07:10.534Z,21.40
2018-09-10T09:09:38.762Z,21.60
2018-09-10T09:12:07.073Z,21.70
2018-09-10T09:14:35.301Z,21.20
2018-09-10T09:17:03.627Z,21.50
2018-09-10T09:19:31.978Z,21.80
2018-09-10T09:22:00.197Z,22.00
2018-09-10T09:24:28.534Z,22.00
2018-09-10T09:26:56.829Z,22.20
2018-09-10T09:29:25.101Z,22.00
2018-09-10T09:31:54.503Z,22.30
2018-09-10T09:34:22.774Z,21.80
2018-09-10T09:36:56.480Z,21.40
2018-09-10T09:39:30.224Z,21.40
2018-09-10T09:42:03.654Z,21.60
2018-09-10T09:44:37.407Z,21.30
2018-09-10T09:47:05.654Z,21.00
2018-09-10T09:49:33.857Z,21.10
2018-09-10T09:52:02.067Z,21.00
2018-09-10T09:54:30.267Z,21.10
2018-09-10T09:56:58.465Z,20.80
2018-09-10T09:59:26.708Z,21.10
2018-09-10T10:02:00.317Z,21.30
2018-09-10T10:04:28.629Z,21.60
2018-09-10T10:06:56.773Z,21.90
2018-09-10T10:09:25.026Z,22.00
2018-09-10T10:11:53.254Z,22.50
2018-09-10T10:14:21.619Z,22.20
2018-09-10T10:16:49.809Z,22.20
2018-09-10T10:19:18.017Z,22.20
2018-09-10T10:21:46.619Z,22.20
2018-09-10T10:24:14.885Z,22.30
2018-09-10T10:26:43.085Z,22.50
2018-09-10T10:29:11.333Z,21.90
2018-09-10T10:31:39.544Z,21.70
2018-09-10T10:34:07.942Z,22.40
2018-09-10T10:36:36.161Z,22.10
2018-09-10T10:39:05.915Z,22.00
2018-09-10T10:41:34.153Z,21.80
2018-09-10T10:44:02.473Z,21.40
2018-09-10T10:46:30.750Z,21.30
2018-09-10T10:48:58.978Z,21.30
2018-09-10T10:51:27.309Z,21.20
2018-09-10T10:53:55.701Z,21.20
2018-09-10T10:56:23.932Z,21.10
2018-09-10T10:58:52.170Z,21.60
2018-09-10T11:01:20.441Z,21.50
2018-09-10T11:03:48.645Z,21.50
2018-09-10T11:06:16.871Z,21.60
2018-09-10T11:08:45.069Z,21.60
2018-09-10T11:11:13.273Z,21.40
2018-09-10T11:13:41.529Z,21.40
2018-09-10T11:16:09.741Z,21.30
2018-09-10T11:18:37.967Z,21.40
2018-09-10T11:21:06.219Z,21.30
2018-09-10T11:23:34.408Z,21.30
2018-09-10T11:26:02.622Z,21.50
2018-09-10T11:28:30.869Z,21.80
2018-09-10T11:30:59.138Z,22.30
2018-09-10T11:33:27.369Z,22.20
2018-09-10T11:35:55.594Z,22.30
2018-09-10T11:38:23.894Z,22.20
2018-09-10T11:40:52.170Z,22.00
2018-09-10T11:43:20.657Z,22.20
2018-09-10T11:45:48.913Z,22.50
2018-09-10T11:48:17.318Z,22.50
2018-09-10T11:50:45.601Z,22.20
2018-09-10T11:53:13.829Z,22.30
2018-09-10T11:55:42.130Z,22.60
2018-09-10T11:58:10.370Z,22.30
2018-09-10T12:00:39.125Z,22.00
2018-09-10T12:03:07.355Z,21.80
2018-09-10T12:05:35.706Z,21.60
2018-09-10T12:08:03.961Z,21.70
2018-09-10T12:10:32.235Z,21.90
2018-09-10T12:13:00.461Z,21.50
2018-09-10T12:15:29.427Z,21.80
2018-09-10T12:17:57.670Z,21.80
2018-09-10T12:20:25.924Z,22.20
2018-09-10T12:22:54.138Z,22.20
2018-09-10T12:25:22.386Z,22.10
2018-09-10T12:27:50.583Z,22.10
2018-09-10T12:30:18.841Z,21.50
2018-09-10T12:32:47.034Z,21.50
2018-09-10T12:35:15.294Z,21.60
2018-09-10T12:37:43.506Z,21.70
2018-09-10T12:40:11.746Z,21.60
2018-09-10T12:42:39.963Z,21.50
2018-09-10T12:45:08.269Z,21.80
2018-09-10T12:47:36.746Z,22.20
2018-09-10T12:50:05.118Z,22.10
2018-09-10T12:52:33.369Z,22.10
2018-09-10T12:55:01.594Z,22.10
2018-09-10T12:57:29.794Z,21.50
2018-09-10T12:59:58.026Z,21.80
2018-09-10T13:02:26.269Z,21.90
2018-09-10T13:04:54.522Z,22.10
2018-09-10T13:07:22.739Z,21.90
2018-09-10T13:09:50.984Z,22.10
2018-09-10T13:12:19.214Z,22.60
2018-09-10T13:14:47.498Z,22.30
2018-09-10T13:17:15.760Z,22.50
2018-09-10T13:19:44.434Z,22.80
2018-09-10T13:22:12.661Z,23.00
2018-09-10T13:24:40.878Z,22.80
2018-09-10T13:27:09.166Z,22.60
2018-09-10T13:29:37.377Z,22.20
2018-09-10T13:32:05.638Z,22.50
2018-09-10T13:34:33.875Z,22.50
2018-09-10T13:37:02.823Z,22.50
2018-09-10T13:39:31.148Z,22.50
2018-09-10T13:41:59.478Z,22.60
2018-09-10T13:44:27.681Z,22.50
2018-09-10T13:46:56.053Z,22.40
2018-09-10T13:49:24.305Z,22.30
2018-09-10T13:51:52.501Z,22.80
2018-09-10T13:54:20.721Z,22.60
2018-09-10T13:56:48.949Z,22.40
2018-09-10T13:59:17.222Z,22.30
2018-09-10T14:01:45.490Z,22.40
2018-09-10T14:04:13.729Z,22.50
2018-09-10T14:06:41.949Z,22.40
2018-09-10T14:09:10.177Z,22.30
2018-09-10T14:11:38.579Z,22.50
2018-09-10T14:14:07.451Z,22.80
2018-09-10T14:16:35.777Z,22.60
2018-09-10T14:19:03.993Z,22.60
2018-09-10T14:21:32.197Z,22.90
2018-09-10T14:24:00.523Z,22.70
2018-09-10T14:26:28.886Z,22.40
2018-09-10T14:28:57.098Z,21.60
2018-09-10T14:31:25.361Z,21.60
2018-09-10T14:33:53.550Z,21.30
2018-09-10T14:36:21.876Z,20.90
2018-09-10T14:38:50.165Z,21.00
2018-09-10T14:41:18.454Z,21.00
2018-09-10T14:43:46.649Z,21.20
2018-09-10T14:46:14.869Z,20.80
2018-09-10T14:48:43.114Z,20.90
2018-09-10T14:51:11.372Z,21.40
2018-09-10T14:53:39.577Z,21.20
2018-09-10T14:56:07.802Z,21.30
2018-09-10T14:58:36.034Z,21.40
2018-09-10T15:01:04.276Z,21.20
2018-09-10T15:03:32.537Z,21.30
2018-09-10T15:06:00.822Z,21.30
2018-09-10T15:08:28.969Z,21.30
2018-09-10T15:10:57.176Z,21.20
2018-09-10T15:13:25.515Z,21.40
2018-09-10T15:15:53.786Z,21.80
2018-09-10T15:18:22.132Z,21.30
2018-09-10T15:20:50.388Z,21.40
2018-09-10T15:23:18.625Z,21.40
2018-09-10T15:25:46.936Z,21.40
2018-09-10T15:28:15.130Z,21.20
2018-09-10T15:30:43.357Z,21.60
2018-09-10T15:33:11.606Z,21.40
2018-09-10T15:35:40.326Z,21.70
2018-09-10T15:38:08.612Z,21.70
2018-09-10T15:40:36.912Z,21.80
2018-09-10T15:43:05.119Z,22.10
2018-09-10T15:45:33.319Z,22.10
2018-09-10T15:48:01.850Z,22.20
2018-09-10T15:50:30.088Z,22.00
2018-09-10T15:52:58.689Z,21.40
2018-09-10T15:55:27.249Z,21.20
2018-09-10T15:57:56.587Z,20.90
2018-09-10T16:00:25.352Z,20.70
2018-09-10T16:02:54.141Z,20.80
2018-09-10T16:05:23.481Z,20.50
2018-09-10T16:07:52.974Z,20.40
2018-09-10T16:10:22.006Z,20.30
2018-09-10T16:12:50.236Z,20.30
2018-09-10T16:15:18.544Z,20.40
2018-09-10T16:17:53.519Z,20.60
2018-09-10T16:20:21.770Z,20.60
2018-09-10T16:22:50.070Z,20.70
2018-09-10T16:25:18.317Z,20.60
2018-09-10T16:27:46.528Z,20.60
2018-09-10T16:30:14.867Z,20.90
2018-09-10T16:32:43.138Z,20.80
2018-09-10T16:35:11.370Z,20.50
2018-09-10T16:37:39.609Z,21.00
2018-09-10T16:40:07.898Z,20.60
2018-09-10T16:42:36.204Z,20.30
2018-09-10T16:45:04.742Z,20.30
2018-09-10T16:47:32.991Z,20.40
2018-09-10T16:50:01.265Z,20.50
2018-09-10T16:52:29.545Z,20.70
2018-09-10T16:54:57.836Z,20.70
2018-09-10T16:57:26.045Z,20.70
2018-09-10T16:59:54.345Z,20.90
2018-09-10T17:02:23.401Z,20.60
2018-09-10T17:04:51.621Z,20.60
2018-09-10T17:07:19.949Z,20.60
2018-09-10T17:09:48.198Z,20.70
2018-09-10T17:12:16.567Z,20.60
2018-09-10T17:14:44.850Z,20.50
2018-09-10T17:17:13.085Z,20.60
2018-09-10T17:19:41.333Z,20.60
2018-09-10T17:22:09.669Z,20.60
2018-09-10T17:24:37.921Z,20.20
2018-09-10T17:27:06.211Z,20.20
2018-09-10T17:29:34.415Z,20.10
2018-09-10T17:32:03.300Z,20.00
2018-09-10T17:34:32.638Z,19.90
2018-09-10T17:37:00.896Z,20.00
2018-09-10T17:39:29.171Z,20.00
2018-09-10T17:41:57.400Z,20.10
2018-09-10T17:44:25.629Z,19.90
2018-09-10T17:46:53.958Z,19.50
2018-09-10T17:49:22.233Z,19.60
2018-09-10T17:51:50.654Z,19.70
2018-09-10T17:54:18.942Z,19.60
2018-09-10T17:56:47.186Z,19.50
2018-09-10T17:59:15.391Z,19.50
2018-09-10T18:01:43.661Z,19.70
2018-09-10T18:04:11.910Z,19.40
2018-09-10T18:06:40.170Z,19.60
2018-09-10T18:09:09.826Z,19.60
2018-09-10T18:11:38.105Z,19.40
2018-09-10T18:14:06.350Z,19.30
2018-09-10T18:16:34.695Z,19.50
2018-09-10T18:19:03.002Z,19.90
2018-09-10T18:21:31.953Z,20.00
2018-09-10T18:24:00.208Z,19.80
2018-09-10T18:26:28.446Z,19.50
2018-09-10T18:28:56.721Z,19.40
2018-09-10T18:31:24.954Z,19.50
2018-09-10T18:33:53.198Z,19.20
2018-09-10T18:36:21.503Z,19.40
2018-09-10T18:38:50.034Z,19.30
2018-09-10T18:41:18.259Z,19.20
2018-09-10T18:43:46.530Z,19.10
2018-09-10T18:46:14.883Z,19.10
2018-09-10T18:48:43.394Z,19.10
2018-09-10T18:51:11.634Z,18.80
2018-09-10T18:53:39.889Z,18.80
2018-09-10T18:56:08.313Z,19.00
2018-09-10T18:58:36.566Z,19.40
2018-09-10T19:01:04.857Z,19.50
2018-09-10T19:03:33.047Z,19.40
2018-09-10T19:06:01.552Z,19.40
2018-09-10T19:08:29.769Z,19.10
2018-09-10T19:10:58.006Z,19.10
2018-09-10T19:13:26.222Z,17.60
2018-09-10T19:15:54.494Z,19.30
2018-09-10T19:18:26.929Z,19.60
2018-09-10T19:20:55.153Z,19.30
2018-09-10T19:23:23.431Z,19.20
2018-09-10T19:25:51.701Z,19.20
2018-09-10T19:28:19.906Z,19.50
2018-09-10T19:30:48.110Z,19.40
2018-09-10T19:33:16.398Z,18.90
2018-09-10T19:35:44.630Z,19.10
2018-09-10T19:38:12.850Z,19.30
2018-09-10T19:40:41.105Z,19.20
2018-09-10T19:43:09.355Z,19.00
2018-09-10T19:45:37.574Z,19.10
2018-09-10T19:48:05.817Z,19.10
2018-09-10T19:50:34.072Z,19.30
2018-09-10T19:53:02.326Z,19.20
2018-09-10T19:55:30.579Z,19.20
2018-09-10T19:57:58.822Z,19.20
2018-09-10T20:00:27.062Z,19.00
2018-09-10T20:02:55.263Z,18.60
2018-09-10T20:05:23.594Z,19.00
2018-09-10T20:07:51.788Z,16.40
2018-09-10T20:10:20.006Z,18.70
2018-09-10T20:12:48.278Z,18.60
2018-09-10T20:15:16.613Z,18.60
2018-09-10T20:17:44.809Z,18.70
2018-09-10T20:20:13.057Z,18.70
2018-09-10T20:22:41.269Z,18.80
2018-09-10T20:25:09.581Z,18.90
2018-09-10T20:27:37.781Z,18.90
2018-09-10T20:30:06.356Z,19.00
2018-09-10T20:32:34.632Z,19.10
2018-09-10T20:35:02.874Z,18.70
2018-09-10T20:37:31.078Z,18.60
2018-09-10T20:39:59.386Z,18.90
2018-09-10T20:42:27.618Z,19.20
2018-09-10T20:44:55.918Z,19.30
2018-09-10T20:47:24.156Z,19.40
2018-09-10T20:49:52.778Z,18.80
2018-09-10T20:52:21.048Z,18.90
2018-09-10T20:54:49.246Z,19.30
2018-09-10T20:57:17.553Z,19.10
2018-09-10T20:59:45.801Z,18.80
2018-09-10T21:02:14.053Z,19.10
2018-09-10T21:04:42.422Z,19.20
2018-09-10T21:07:10.722Z,19.40
2018-09-10T21:09:38.989Z,19.40
2018-09-10T21:12:07.257Z,19.10
2018-09-10T21:14:35.458Z,18.90
2018-09-10T21:17:03.738Z,19.00
2018-09-10T21:19:31.967Z,19.10
2018-09-10T21:22:00.205Z,19.10
2018-09-10T21:24:28.421Z,19.20
2018-09-10T21:26:56.674Z,19.20
2018-09-10T21:29:24.884Z,19.20
2018-09-10T21:31:53.158Z,19.00
2018-09-10T21:34:21.389Z,19.00
2018-09-10T21:36:49.652Z,18.80
2018-09-10T21:39:17.905Z,19.00
2018-09-10T21:41:46.142Z,19.00
2018-09-10T21:44:14.387Z,18.50
2018-09-10T21:46:42.633Z,18.50
2018-09-10T21:49:10.929Z,18.60
2018-09-10T21:51:40.277Z,18.40
2018-09-10T21:54:08.505Z,18.40
2018-09-10T21:56:36.818Z,18.60
2018-09-10T21:59:05.110Z,18.60
2018-09-10T22:01:33.314Z,18.70
2018-09-10T22:04:01.508Z,19.00
2018-09-10T22:06:29.817Z,18.80
2018-09-10T22:08:58.053Z,18.40
2018-09-10T22:11:27.132Z,18.20
2018-09-10T22:13:55.325Z,18.40
2018-09-10T22:16:23.629Z,18.20
2018-09-10T22:18:51.838Z,18.20
2018-09-10T22:21:20.082Z,18.20
2018-09-10T22:23:48.290Z,18.20
2018-09-10T22:26:16.772Z,18.30
2018-09-10T22:28:45.006Z,18.40
2018-09-10T22:31:13.283Z,18.40
2018-09-10T22:33:41.506Z,18.40
2018-09-10T22:36:09.759Z,18.30
2018-09-10T22:38:38.057Z,18.30
2018-09-10T22:41:06.293Z,18.20
2018-09-10T22:43:34.478Z,18.30
2018-09-10T22:46:02.730Z,18.60
2018-09-10T22:48:30.968Z,18.00
2018-09-10T22:50:59.234Z,17.90
2018-09-10T22:53:27.414Z,18.00
2018-09-10T22:55:55.662Z,18.10
2018-09-10T22:58:23.907Z,18.30
2018-09-10T23:00:52.294Z,18.50
2018-09-10T23:03:20.535Z,18.70
2018-09-10T23:05:48.734Z,18.40
2018-09-10T23:08:16.924Z,18.50
2018-09-10T23:10:45.177Z,18.40
2018-09-10T23:13:13.474Z,18.50
2018-09-10T23:15:41.723Z,18.10
2018-09-10T23:18:09.915Z,18.30
2018-09-10T23:20:38.143Z,18.30
2018-09-10T23:23:06.353Z,18.20
2018-09-10T23:25:34.557Z,18.20
2018-09-10T23:28:02.759Z,18.00
2018-09-10T23:30:31.037Z,18.20
2018-09-10T23:32:59.290Z,18.20
2018-09-10T23:35:27.477Z,18.10
2018-09-10T23:37:55.731Z,17.90
2018-09-10T23:40:23.929Z,17.90
2018-09-10T23:42:52.191Z,17.70
2018-09-10T23:45:20.389Z,17.90
2018-09-10T23:47:48.697Z,17.90
2018-09-10T23:50:16.989Z,17.80
2018-09-10T23:52:45.194Z,18.10
2018-09-10T23:55:13.437Z,18.00
2018-09-10T23:57:41.674Z,18.00
